PBD158 URKK-UUWW
Flight info
| Callsign | PBD158 |
|---|---|
| Flight time | 3h 3m |
| Altitude | 35000 |
| Route | N0450F350 SM B950 AG B549 IRGID A944 GUBOR G487 ERSAR DCT BEMES DCT VULFI DCT TUVGI DCT EVZUN DCT ZIZAR DCT VAZLU DCT UZZID DCT NOKLI N72 WGD G481 OBABI T619 UMRAL P163 LADIM/K0821F340 P163 GOLRI L736 OLOPI |
| Aircraft | B738/M-VGDW/C |
Departure
| Time | 2026-04-30 18:12 |
|---|---|
| Airport | Krasnodar Pashkovsky International Airport (URKK) |
Arrival
| Time | 2026-04-30 21:15 |
|---|---|
| Airport | Vnukovo International Airport (UUWW) |
| Time | Latitude | Longitude | Altitude | Speed | Heading |
|---|---|---|---|---|---|
| 2026-04-30 17:50 | 45.03357 | 39.14111 | 126 ft | 0 kts | 331° |
| 2026-04-30 18:05 | 45.03430 | 39.14176 | 126 ft | 10 kts | 57° |
| 2026-04-30 18:06 | 45.03642 | 39.14709 | 126 ft | 22 kts | 59° |
| 2026-04-30 18:07 | 45.03770 | 39.15481 | 126 ft | 19 kts | 112° |
| 2026-04-30 18:08 | 45.03741 | 39.16005 | 126 ft | 16 kts | 90° |
| 2026-04-30 18:09 | 45.03394 | 39.16469 | 126 ft | 23 kts | 141° |
| 2026-04-30 18:10 | 45.02818 | 39.17092 | 126 ft | 24 kts | 143° |
| 2026-04-30 18:11 | 45.02638 | 39.17352 | 126 ft | 11 kts | 66° |
| 2026-04-30 18:11 | 45.03658 | 39.19238 | 160 ft | 168 kts | 52° |
| 2026-04-30 18:12 | 45.05766 | 39.23013 | 2332 ft | 171 kts | 53° |
| 2026-04-30 18:13 | 45.07297 | 39.25918 | 3195 ft | 199 kts | 52° |
| 2026-04-30 18:13 | 45.09003 | 39.30745 | 4675 ft | 223 kts | 92° |
| 2026-04-30 18:14 | 45.07256 | 39.35165 | 6167 ft | 229 kts | 137° |
| 2026-04-30 18:15 | 45.03296 | 39.38827 | 8131 ft | 230 kts | 162° |
| 2026-04-30 18:15 | 44.98801 | 39.37345 | 9825 ft | 237 kts | 220° |
| 2026-04-30 18:16 | 44.96762 | 39.33666 | 11002 ft | 239 kts | 232° |
| 2026-04-30 18:16 | 44.94783 | 39.29938 | 12164 ft | 240 kts | 232° |
| 2026-04-30 18:17 | 44.93765 | 39.28064 | 12715 ft | 241 kts | 232° |
| 2026-04-30 18:17 | 44.92760 | 39.26215 | 13296 ft | 240 kts | 233° |
| 2026-04-30 18:17 | 44.90744 | 39.22501 | 14367 ft | 240 kts | 233° |
| 2026-04-30 18:18 | 44.89740 | 39.20623 | 14853 ft | 242 kts | 237° |
| 2026-04-30 18:18 | 44.89182 | 39.18343 | 15216 ft | 250 kts | 264° |
| 2026-04-30 18:18 | 44.89403 | 39.15861 | 15586 ft | 263 kts | 277° |
| 2026-04-30 18:18 | 44.89582 | 39.13319 | 16098 ft | 263 kts | 265° |
| 2026-04-30 18:19 | 44.89360 | 39.10725 | 16503 ft | 271 kts | 258° |
| 2026-04-30 18:19 | 44.89011 | 39.08089 | 16949 ft | 278 kts | 258° |
| 2026-04-30 18:19 | 44.88678 | 39.05375 | 17371 ft | 286 kts | 261° |
| 2026-04-30 18:19 | 44.88410 | 39.02560 | 17776 ft | 293 kts | 261° |
| 2026-04-30 18:20 | 44.88165 | 38.99698 | 18252 ft | 298 kts | 261° |
| 2026-04-30 18:20 | 44.87751 | 38.96836 | 18842 ft | 299 kts | 252° |
| 2026-04-30 18:20 | 44.86826 | 38.94260 | 19396 ft | 303 kts | 237° |
| 2026-04-30 18:20 | 44.85434 | 38.91949 | 19725 ft | 314 kts | 230° |
| 2026-04-30 18:21 | 44.83900 | 38.89710 | 19999 ft | 325 kts | 230° |
| 2026-04-30 18:21 | 44.82296 | 38.87342 | 20195 ft | 337 kts | 231° |
| 2026-04-30 18:21 | 44.80656 | 38.84890 | 20401 ft | 350 kts | 229° |
| 2026-04-30 18:21 | 44.78806 | 38.82639 | 20594 ft | 365 kts | 220° |
| 2026-04-30 18:22 | 44.76565 | 38.80828 | 20891 ft | 380 kts | 210° |
| 2026-04-30 18:22 | 44.71419 | 38.78683 | 21890 ft | 393 kts | 197° |
| 2026-04-30 18:22 | 44.68692 | 38.78047 | 22431 ft | 396 kts | 195° |
| 2026-04-30 18:23 | 44.65969 | 38.77492 | 22912 ft | 398 kts | 194° |
| 2026-04-30 18:23 | 44.63226 | 38.76956 | 23387 ft | 400 kts | 194° |
| 2026-04-30 18:23 | 44.60451 | 38.76415 | 23808 ft | 404 kts | 194° |
| 2026-04-30 18:23 | 44.57672 | 38.75865 | 24180 ft | 408 kts | 195° |
| 2026-04-30 18:24 | 44.52037 | 38.74719 | 25128 ft | 411 kts | 195° |
| 2026-04-30 18:24 | 44.49188 | 38.74133 | 25531 ft | 413 kts | 195° |
| 2026-04-30 18:24 | 44.46344 | 38.73542 | 25880 ft | 417 kts | 195° |
| 2026-04-30 18:25 | 44.43460 | 38.72954 | 26280 ft | 420 kts | 194° |
| 2026-04-30 18:25 | 44.37551 | 38.72786 | 27037 ft | 439 kts | 180° |
| 2026-04-30 18:25 | 44.34542 | 38.73704 | 27477 ft | 449 kts | 171° |
| 2026-04-30 18:26 | 44.28785 | 38.77623 | 28109 ft | 473 kts | 153° |
| 2026-04-30 18:26 | 44.26166 | 38.80420 | 28422 ft | 483 kts | 145° |
| 2026-04-30 18:26 | 44.23769 | 38.83749 | 28745 ft | 492 kts | 137° |
| 2026-04-30 18:27 | 44.19503 | 38.91294 | 29405 ft | 501 kts | 131° |
| 2026-04-30 18:27 | 44.17478 | 38.95267 | 29706 ft | 505 kts | 130° |
| 2026-04-30 18:28 | 44.13443 | 39.03343 | 30409 ft | 504 kts | 133° |
| 2026-04-30 18:28 | 44.11206 | 39.06961 | 31044 ft | 494 kts | 139° |
| 2026-04-30 18:28 | 44.06327 | 39.13711 | 31579 ft | 496 kts | 143° |
| 2026-04-30 18:29 | 44.03830 | 39.16962 | 31962 ft | 495 kts | 143° |
| 2026-04-30 18:29 | 43.96335 | 39.26747 | 33241 ft | 491 kts | 143° |
| 2026-04-30 18:30 | 43.91589 | 39.33661 | 34045 ft | 495 kts | 135° |
| 2026-04-30 18:30 | 43.87804 | 39.41649 | 34855 ft | 501 kts | 123° |
| 2026-04-30 18:31 | 43.86349 | 39.46063 | 35073 ft | 506 kts | 114° |
| 2026-04-30 18:31 | 43.84633 | 39.55683 | 35109 ft | 519 kts | 103° |
| 2026-04-30 18:32 | 43.82572 | 39.70166 | 35106 ft | 515 kts | 107° |
| 2026-04-30 18:33 | 43.79757 | 39.84438 | 35102 ft | 514 kts | 108° |
| 2026-04-30 18:33 | 43.78767 | 39.94267 | 35095 ft | 520 kts | 90° |
| 2026-04-30 18:33 | 43.79024 | 39.99307 | 35098 ft | 521 kts | 84° |
| 2026-04-30 18:34 | 43.80788 | 40.14093 | 35088 ft | 521 kts | 79° |
| 2026-04-30 18:35 | 43.82162 | 40.23956 | 35074 ft | 522 kts | 79° |
| 2026-04-30 18:35 | 43.83489 | 40.33825 | 35071 ft | 522 kts | 79° |
| 2026-04-30 18:36 | 43.85385 | 40.48628 | 35075 ft | 523 kts | 80° |
| 2026-04-30 18:37 | 43.87243 | 40.63451 | 35066 ft | 523 kts | 79° |
| 2026-04-30 18:37 | 43.88931 | 40.73250 | 35076 ft | 521 kts | 71° |
| 2026-04-30 18:38 | 43.91499 | 40.82659 | 35070 ft | 520 kts | 65° |
| 2026-04-30 18:38 | 43.94410 | 40.91812 | 35077 ft | 521 kts | 63° |
| 2026-04-30 18:39 | 43.97364 | 41.00947 | 35082 ft | 520 kts | 64° |
| 2026-04-30 18:39 | 44.00261 | 41.10106 | 35093 ft | 520 kts | 64° |
| 2026-04-30 18:40 | 44.03117 | 41.19320 | 35092 ft | 520 kts | 64° |
| 2026-04-30 18:40 | 44.05955 | 41.28569 | 35087 ft | 519 kts | 64° |
| 2026-04-30 18:41 | 44.08761 | 41.37786 | 35092 ft | 521 kts | 65° |
| 2026-04-30 18:41 | 44.10938 | 41.47293 | 35102 ft | 523 kts | 77° |
| 2026-04-30 18:42 | 44.11628 | 41.57238 | 35111 ft | 517 kts | 90° |
| 2026-04-30 18:42 | 44.11295 | 41.72187 | 35117 ft | 516 kts | 95° |
| 2026-04-30 18:45 | 44.09560 | 42.27059 | 35098 ft | 518 kts | 94° |
| 2026-04-30 18:46 | 44.09243 | 42.36997 | 35097 ft | 518 kts | 94° |
| 2026-04-30 18:46 | 44.08918 | 42.46988 | 35097 ft | 518 kts | 94° |
| 2026-04-30 18:47 | 44.08582 | 42.56955 | 35100 ft | 518 kts | 94° |
| 2026-04-30 18:47 | 44.08233 | 42.66951 | 35107 ft | 516 kts | 94° |
| 2026-04-30 18:48 | 44.07879 | 42.76845 | 35119 ft | 516 kts | 94° |
| 2026-04-30 18:48 | 44.07512 | 42.86851 | 35123 ft | 516 kts | 95° |
| 2026-04-30 18:49 | 44.07138 | 42.96791 | 35126 ft | 515 kts | 95° |
| 2026-04-30 18:49 | 44.06759 | 43.06670 | 35126 ft | 515 kts | 94° |
| 2026-04-30 18:50 | 44.06370 | 43.16594 | 35125 ft | 515 kts | 94° |
| 2026-04-30 18:50 | 44.05974 | 43.26495 | 35128 ft | 515 kts | 94° |
| 2026-04-30 18:51 | 44.05568 | 43.36418 | 35125 ft | 515 kts | 94° |
| 2026-04-30 18:51 | 44.05154 | 43.46280 | 35117 ft | 515 kts | 94° |
| 2026-04-30 18:52 | 44.04727 | 43.56174 | 35114 ft | 516 kts | 94° |
| 2026-04-30 18:52 | 44.04294 | 43.66096 | 35114 ft | 515 kts | 95° |
| 2026-04-30 18:53 | 44.03856 | 43.75988 | 35116 ft | 514 kts | 95° |
| 2026-04-30 18:53 | 44.03409 | 43.85876 | 35112 ft | 515 kts | 95° |
| 2026-04-30 18:54 | 44.02950 | 43.95820 | 35108 ft | 513 kts | 95° |
| 2026-04-30 18:54 | 44.02487 | 44.05630 | 35109 ft | 512 kts | 95° |
| 2026-04-30 18:55 | 44.02014 | 44.15492 | 35109 ft | 513 kts | 95° |
| 2026-04-30 18:55 | 44.01290 | 44.30309 | 35107 ft | 513 kts | 95° |
| 2026-04-30 18:56 | 44.00546 | 44.45077 | 35110 ft | 513 kts | 95° |
| 2026-04-30 18:57 | 43.99784 | 44.59774 | 35111 ft | 511 kts | 95° |
| 2026-04-30 18:57 | 43.99267 | 44.69568 | 35112 ft | 511 kts | 96° |
| 2026-04-30 18:58 | 43.98471 | 44.84318 | 35113 ft | 511 kts | 95° |
| 2026-04-30 18:59 | 43.97660 | 44.99022 | 35111 ft | 510 kts | 96° |
| 2026-04-30 19:00 | 43.96550 | 45.18618 | 35113 ft | 510 kts | 96° |
| 2026-04-30 19:01 | 43.95407 | 45.38179 | 35115 ft | 511 kts | 95° |
| 2026-04-30 19:02 | 43.94528 | 45.52862 | 35113 ft | 511 kts | 96° |
| 2026-04-30 19:03 | 43.93324 | 45.72494 | 35115 ft | 510 kts | 96° |
| 2026-04-30 19:04 | 43.93700 | 45.92011 | 35120 ft | 509 kts | 72° |
| 2026-04-30 19:05 | 43.99273 | 46.10009 | 35114 ft | 508 kts | 60° |
| 2026-04-30 19:06 | 44.05591 | 46.27455 | 35112 ft | 506 kts | 60° |
| 2026-04-30 19:06 | 44.10258 | 46.40641 | 35118 ft | 506 kts | 60° |
| 2026-04-30 19:07 | 44.14873 | 46.53860 | 35121 ft | 507 kts | 60° |
| 2026-04-30 19:08 | 44.21002 | 46.71561 | 35123 ft | 508 kts | 62° |
| 2026-04-30 19:09 | 44.25589 | 46.84873 | 35126 ft | 507 kts | 61° |
| 2026-04-30 19:09 | 44.28651 | 46.93800 | 35126 ft | 508 kts | 62° |
| 2026-04-30 19:10 | 44.34728 | 47.11608 | 35125 ft | 507 kts | 61° |
| 2026-04-30 19:11 | 44.39262 | 47.24965 | 35126 ft | 507 kts | 61° |
| 2026-04-30 19:12 | 44.42281 | 47.33885 | 35132 ft | 508 kts | 61° |
| 2026-04-30 19:12 | 44.45285 | 47.42784 | 35131 ft | 507 kts | 60° |
| 2026-04-30 19:13 | 44.49007 | 47.51034 | 35123 ft | 496 kts | 41° |
| 2026-04-30 19:13 | 44.54476 | 47.56428 | 35126 ft | 477 kts | 17° |
| 2026-04-30 19:14 | 44.60643 | 47.59392 | 35130 ft | 457 kts | 1° |
| 2026-04-30 19:14 | 44.66860 | 47.59978 | 35131 ft | 446 kts | 351° |
| 2026-04-30 19:15 | 44.73050 | 47.59779 | 35132 ft | 443 kts | 349° |
| 2026-04-30 19:15 | 44.82316 | 47.59422 | 35133 ft | 444 kts | 350° |
| 2026-04-30 19:16 | 44.88485 | 47.59299 | 35132 ft | 444 kts | 350° |
| 2026-04-30 19:17 | 44.97768 | 47.59183 | 35258 ft | 449 kts | 350° |
| 2026-04-30 19:17 | 45.03977 | 47.59132 | 35134 ft | 444 kts | 350° |
| 2026-04-30 19:17 | 45.07055 | 47.59108 | 35134 ft | 446 kts | 350° |
| 2026-04-30 19:18 | 45.16370 | 47.59032 | 35131 ft | 445 kts | 350° |
| 2026-04-30 19:19 | 45.22565 | 47.58976 | 35135 ft | 446 kts | 350° |
| 2026-04-30 19:19 | 45.31866 | 47.58896 | 35135 ft | 448 kts | 350° |
| 2026-04-30 19:20 | 45.38081 | 47.58841 | 35137 ft | 448 kts | 350° |
| 2026-04-30 19:21 | 45.47408 | 47.58767 | 35134 ft | 444 kts | 350° |
| 2026-04-30 19:22 | 45.59757 | 47.58659 | 35137 ft | 444 kts | 349° |
| 2026-04-30 19:22 | 45.68902 | 47.57799 | 35134 ft | 419 kts | 329° |
| 2026-04-30 19:23 | 45.75319 | 47.50312 | 35144 ft | 394 kts | 306° |
| 2026-04-30 19:24 | 45.81175 | 47.41985 | 35143 ft | 400 kts | 309° |
| 2026-04-30 19:25 | 45.91677 | 47.29026 | 35145 ft | 398 kts | 312° |
| 2026-04-30 19:26 | 46.00174 | 47.18734 | 35150 ft | 398 kts | 312° |
| 2026-04-30 19:27 | 46.06529 | 47.11005 | 35139 ft | 403 kts | 311° |
| 2026-04-30 19:28 | 46.12918 | 47.03213 | 35149 ft | 402 kts | 311° |
| 2026-04-30 19:29 | 46.21467 | 46.92744 | 35147 ft | 404 kts | 311° |
| 2026-04-30 19:30 | 46.30027 | 46.82209 | 35158 ft | 406 kts | 312° |
| 2026-04-30 19:31 | 46.38597 | 46.71629 | 35157 ft | 407 kts | 312° |
| 2026-04-30 19:31 | 46.45060 | 46.63617 | 35141 ft | 407 kts | 312° |
| 2026-04-30 19:32 | 46.49379 | 46.58247 | 35139 ft | 408 kts | 312° |
| 2026-04-30 19:32 | 46.53669 | 46.52900 | 35152 ft | 411 kts | 312° |
| 2026-04-30 19:33 | 46.57998 | 46.47498 | 35155 ft | 410 kts | 313° |
| 2026-04-30 19:33 | 46.62312 | 46.42105 | 35135 ft | 411 kts | 312° |
| 2026-04-30 19:34 | 46.66668 | 46.36637 | 35150 ft | 413 kts | 313° |
| 2026-04-30 19:35 | 46.73132 | 46.28512 | 35145 ft | 410 kts | 311° |
| 2026-04-30 19:35 | 46.77461 | 46.23052 | 35144 ft | 413 kts | 312° |
| 2026-04-30 19:36 | 46.81801 | 46.17562 | 35129 ft | 413 kts | 312° |
| 2026-04-30 19:36 | 46.88300 | 46.09333 | 35132 ft | 416 kts | 313° |
| 2026-04-30 19:37 | 46.92873 | 46.04107 | 35151 ft | 421 kts | 319° |
| 2026-04-30 19:37 | 46.98049 | 45.99895 | 35149 ft | 430 kts | 326° |
| 2026-04-30 19:38 | 47.03508 | 45.96095 | 35156 ft | 439 kts | 328° |
| 2026-04-30 19:38 | 47.09053 | 45.92314 | 35153 ft | 440 kts | 327° |
| 2026-04-30 19:39 | 47.14334 | 45.88677 | 35156 ft | 442 kts | 327° |
| 2026-04-30 19:39 | 47.19870 | 45.84822 | 35154 ft | 442 kts | 327° |
| 2026-04-30 19:40 | 47.25424 | 45.80927 | 35156 ft | 442 kts | 327° |
| 2026-04-30 19:40 | 47.30966 | 45.77016 | 35154 ft | 443 kts | 327° |
| 2026-04-30 19:41 | 47.36494 | 45.73101 | 35147 ft | 444 kts | 327° |
| 2026-04-30 19:41 | 47.42052 | 45.69156 | 35156 ft | 444 kts | 327° |
| 2026-04-30 19:42 | 47.47612 | 45.65200 | 35153 ft | 444 kts | 327° |
| 2026-04-30 19:42 | 47.53162 | 45.61243 | 35152 ft | 446 kts | 327° |
| 2026-04-30 19:43 | 47.58746 | 45.57250 | 35152 ft | 445 kts | 327° |
| 2026-04-30 19:44 | 47.67100 | 45.51261 | 35151 ft | 447 kts | 327° |
| 2026-04-30 19:44 | 47.72695 | 45.47238 | 35154 ft | 448 kts | 327° |
| 2026-04-30 19:45 | 47.78156 | 45.43034 | 35153 ft | 443 kts | 322° |
| 2026-04-30 19:45 | 47.83101 | 45.37761 | 35156 ft | 435 kts | 314° |
| 2026-04-30 19:46 | 47.87627 | 45.31797 | 35153 ft | 435 kts | 310° |
| 2026-04-30 19:46 | 47.92039 | 45.25732 | 35145 ft | 434 kts | 310° |
| 2026-04-30 19:47 | 47.96479 | 45.19625 | 35155 ft | 434 kts | 311° |
| 2026-04-30 19:47 | 48.00923 | 45.13566 | 35152 ft | 436 kts | 311° |
| 2026-04-30 19:48 | 48.05701 | 45.07954 | 35142 ft | 442 kts | 318° |
| 2026-04-30 19:48 | 48.10806 | 45.02796 | 35129 ft | 444 kts | 320° |
| 2026-04-30 19:49 | 48.15987 | 44.97693 | 35152 ft | 446 kts | 320° |
| 2026-04-30 19:49 | 48.23694 | 44.90027 | 35151 ft | 446 kts | 320° |
| 2026-04-30 19:50 | 48.28850 | 44.84842 | 35138 ft | 447 kts | 320° |
| 2026-04-30 19:50 | 48.33983 | 44.79649 | 35149 ft | 445 kts | 320° |
| 2026-04-30 19:51 | 48.39130 | 44.74421 | 35149 ft | 447 kts | 320° |
| 2026-04-30 19:51 | 48.44266 | 44.69191 | 35164 ft | 447 kts | 320° |
| 2026-04-30 19:52 | 48.49383 | 44.63966 | 35154 ft | 447 kts | 320° |
| 2026-04-30 19:52 | 48.54533 | 44.58687 | 35147 ft | 449 kts | 320° |
| 2026-04-30 19:53 | 48.59652 | 44.53428 | 35145 ft | 449 kts | 320° |
| 2026-04-30 19:53 | 48.64803 | 44.48121 | 35137 ft | 447 kts | 320° |
| 2026-04-30 19:54 | 48.69926 | 44.42828 | 35135 ft | 448 kts | 320° |
| 2026-04-30 19:54 | 48.75088 | 44.37524 | 35135 ft | 449 kts | 321° |
| 2026-04-30 19:55 | 48.80557 | 44.32858 | 35136 ft | 457 kts | 329° |
| 2026-04-30 19:55 | 48.86467 | 44.29265 | 35140 ft | 460 kts | 334° |
| 2026-04-30 19:56 | 48.92480 | 44.25980 | 35132 ft | 459 kts | 334° |
| 2026-04-30 19:56 | 48.98485 | 44.22699 | 35139 ft | 460 kts | 334° |
| 2026-04-30 19:57 | 49.04497 | 44.19351 | 35136 ft | 461 kts | 334° |
| 2026-04-30 19:57 | 49.10498 | 44.15964 | 35134 ft | 461 kts | 334° |
| 2026-04-30 19:58 | 49.16510 | 44.12542 | 35132 ft | 461 kts | 334° |
| 2026-04-30 19:58 | 49.22510 | 44.09108 | 35131 ft | 461 kts | 334° |
| 2026-04-30 19:59 | 49.28471 | 44.05683 | 35132 ft | 461 kts | 334° |
| 2026-04-30 20:00 | 49.37492 | 44.00480 | 35123 ft | 461 kts | 334° |
| 2026-04-30 20:00 | 49.40490 | 43.98746 | 35275 ft | 460 kts | 334° |
| 2026-04-30 20:00 | 49.43413 | 43.97057 | 35759 ft | 452 kts | 334° |
| 2026-04-30 20:00 | 49.46357 | 43.95357 | 36068 ft | 448 kts | 334° |
| 2026-04-30 20:01 | 49.52191 | 43.91840 | 36121 ft | 453 kts | 331° |
| 2026-04-30 20:01 | 49.57811 | 43.87463 | 36126 ft | 457 kts | 327° |
| 2026-04-30 20:02 | 49.66168 | 43.80278 | 36121 ft | 459 kts | 326° |
| 2026-04-30 20:03 | 49.74529 | 43.73120 | 36122 ft | 459 kts | 327° |
| 2026-04-30 20:03 | 49.80096 | 43.68390 | 36126 ft | 459 kts | 327° |
| 2026-04-30 20:04 | 49.85668 | 43.63661 | 36122 ft | 460 kts | 327° |
| 2026-04-30 20:05 | 49.94088 | 43.56505 | 36114 ft | 460 kts | 327° |
| 2026-04-30 20:05 | 50.02469 | 43.49354 | 36117 ft | 461 kts | 327° |
| 2026-04-30 20:06 | 50.08109 | 43.44528 | 36121 ft | 460 kts | 327° |
| 2026-04-30 20:06 | 50.13690 | 43.39738 | 36122 ft | 460 kts | 328° |
| 2026-04-30 20:07 | 50.19298 | 43.34913 | 36124 ft | 461 kts | 327° |
| 2026-04-30 20:08 | 50.27613 | 43.27736 | 36124 ft | 460 kts | 327° |
| 2026-04-30 20:08 | 50.33189 | 43.22904 | 36121 ft | 461 kts | 327° |
| 2026-04-30 20:09 | 50.38801 | 43.18028 | 36120 ft | 461 kts | 327° |
| 2026-04-30 20:09 | 50.47188 | 43.10717 | 36124 ft | 461 kts | 327° |
| 2026-04-30 20:10 | 50.55567 | 43.03384 | 36125 ft | 461 kts | 327° |
| 2026-04-30 20:11 | 50.63974 | 42.95998 | 36125 ft | 462 kts | 328° |
| 2026-04-30 20:11 | 50.69634 | 42.91264 | 36125 ft | 465 kts | 332° |
| 2026-04-30 20:12 | 50.78678 | 42.85730 | 36121 ft | 468 kts | 338° |
| 2026-04-30 20:13 | 50.84835 | 42.82377 | 36121 ft | 467 kts | 338° |
| 2026-04-30 20:13 | 50.90965 | 42.79034 | 36118 ft | 467 kts | 338° |
| 2026-04-30 20:14 | 50.97093 | 42.75645 | 36118 ft | 467 kts | 338° |
| 2026-04-30 20:14 | 51.03206 | 42.72229 | 36118 ft | 467 kts | 338° |
| 2026-04-30 20:15 | 51.09309 | 42.68795 | 36117 ft | 467 kts | 338° |
| 2026-04-30 20:15 | 51.15420 | 42.65340 | 36118 ft | 467 kts | 338° |
| 2026-04-30 20:16 | 51.21520 | 42.61880 | 36120 ft | 468 kts | 338° |
| 2026-04-30 20:16 | 51.27638 | 42.58400 | 36119 ft | 467 kts | 338° |
| 2026-04-30 20:17 | 51.33745 | 42.54917 | 36122 ft | 468 kts | 338° |
| 2026-04-30 20:17 | 51.39849 | 42.51426 | 36122 ft | 467 kts | 338° |
| 2026-04-30 20:18 | 51.45960 | 42.47920 | 36124 ft | 468 kts | 338° |
| 2026-04-30 20:18 | 51.52080 | 42.44398 | 36122 ft | 468 kts | 338° |
| 2026-04-30 20:19 | 51.58171 | 42.40884 | 36124 ft | 468 kts | 338° |
| 2026-04-30 20:19 | 51.64275 | 42.37352 | 36126 ft | 468 kts | 338° |
| 2026-04-30 20:20 | 51.70420 | 42.33787 | 36126 ft | 467 kts | 338° |
| 2026-04-30 20:20 | 51.76479 | 42.30261 | 36123 ft | 467 kts | 338° |
| 2026-04-30 20:21 | 51.82594 | 42.26691 | 36127 ft | 468 kts | 338° |
| 2026-04-30 20:21 | 51.88697 | 42.23118 | 36126 ft | 468 kts | 338° |
| 2026-04-30 20:22 | 51.94820 | 42.19524 | 36121 ft | 468 kts | 338° |
| 2026-04-30 20:22 | 52.00921 | 42.15933 | 36127 ft | 469 kts | 338° |
| 2026-04-30 20:23 | 52.07009 | 42.12338 | 36124 ft | 469 kts | 338° |
| 2026-04-30 20:23 | 52.13157 | 42.08741 | 36120 ft | 468 kts | 339° |
| 2026-04-30 20:24 | 52.19305 | 42.05332 | 36123 ft | 468 kts | 340° |
| 2026-04-30 20:24 | 52.25466 | 42.01967 | 36124 ft | 469 kts | 340° |
| 2026-04-30 20:25 | 52.34750 | 41.97049 | 36122 ft | 470 kts | 343° |
| 2026-04-30 20:26 | 52.44454 | 41.95474 | 36125 ft | 473 kts | 359° |
| 2026-04-30 20:26 | 52.54327 | 41.96130 | 36124 ft | 473 kts | 1° |
| 2026-04-30 20:27 | 52.67415 | 41.96693 | 36123 ft | 472 kts | 353° |
| 2026-04-30 20:28 | 52.73555 | 41.93242 | 36127 ft | 469 kts | 327° |
| 2026-04-30 20:28 | 52.78773 | 41.86926 | 36132 ft | 466 kts | 320° |
| 2026-04-30 20:30 | 52.91206 | 41.69995 | 36133 ft | 465 kts | 319° |
| 2026-04-30 20:31 | 53.06145 | 41.49568 | 36142 ft | 466 kts | 320° |
| 2026-04-30 20:32 | 53.18628 | 41.32437 | 36141 ft | 465 kts | 320° |
| 2026-04-30 20:33 | 53.26986 | 41.24314 | 36143 ft | 467 kts | 339° |
| 2026-04-30 20:34 | 53.36227 | 41.19496 | 36142 ft | 467 kts | 343° |
| 2026-04-30 20:35 | 53.45591 | 41.14971 | 36143 ft | 467 kts | 342° |
| 2026-04-30 20:35 | 53.54901 | 41.10301 | 36143 ft | 467 kts | 342° |
| 2026-04-30 20:36 | 53.61080 | 41.07137 | 36144 ft | 467 kts | 342° |
| 2026-04-30 20:36 | 53.67003 | 41.02839 | 36147 ft | 465 kts | 326° |
| 2026-04-30 20:37 | 53.69509 | 40.99445 | 36147 ft | 465 kts | 315° |
| 2026-04-30 20:37 | 53.73380 | 40.90808 | 36153 ft | 465 kts | 300° |
| 2026-04-30 20:38 | 53.76263 | 40.81021 | 36150 ft | 465 kts | 294° |
| 2026-04-30 20:38 | 53.78760 | 40.71025 | 36154 ft | 465 kts | 292° |
| 2026-04-30 20:39 | 53.82462 | 40.55939 | 36153 ft | 465 kts | 293° |
| 2026-04-30 20:40 | 53.86253 | 40.40782 | 36158 ft | 466 kts | 294° |
| 2026-04-30 20:40 | 53.88785 | 40.30721 | 36160 ft | 466 kts | 293° |
| 2026-04-30 20:41 | 53.92591 | 40.15625 | 36165 ft | 468 kts | 293° |
| 2026-04-30 20:41 | 53.95127 | 40.05524 | 36168 ft | 466 kts | 293° |
| 2026-04-30 20:42 | 53.97644 | 39.95452 | 36171 ft | 466 kts | 293° |
| 2026-04-30 20:43 | 54.01420 | 39.80249 | 36177 ft | 466 kts | 294° |
| 2026-04-30 20:43 | 54.02669 | 39.75194 | 36057 ft | 468 kts | 294° |
| 2026-04-30 20:43 | 54.03928 | 39.70093 | 35693 ft | 469 kts | 294° |
| 2026-04-30 20:44 | 54.06441 | 39.59868 | 34338 ft | 475 kts | 294° |
| 2026-04-30 20:44 | 54.07703 | 39.54715 | 33501 ft | 480 kts | 294° |
| 2026-04-30 20:44 | 54.10249 | 39.44284 | 32471 ft | 473 kts | 294° |
| 2026-04-30 20:45 | 54.12723 | 39.34087 | 31612 ft | 464 kts | 293° |
| 2026-04-30 20:45 | 54.13963 | 39.28963 | 31056 ft | 464 kts | 293° |
| 2026-04-30 20:45 | 54.15187 | 39.23892 | 30539 ft | 464 kts | 294° |
| 2026-04-30 20:46 | 54.18837 | 39.08708 | 28591 ft | 465 kts | 293° |
| 2026-04-30 20:46 | 54.20058 | 39.03608 | 27857 ft | 467 kts | 293° |
| 2026-04-30 20:47 | 54.22898 | 38.93706 | 26360 ft | 467 kts | 304° |
| 2026-04-30 20:47 | 54.25020 | 38.89547 | 25581 ft | 463 kts | 319° |
| 2026-04-30 20:48 | 54.30312 | 38.83799 | 25184 ft | 453 kts | 333° |
| 2026-04-30 20:48 | 54.33137 | 38.81305 | 25188 ft | 457 kts | 333° |
| 2026-04-30 20:48 | 54.35980 | 38.78873 | 25186 ft | 457 kts | 334° |
| 2026-04-30 20:48 | 54.38818 | 38.76472 | 25185 ft | 456 kts | 334° |
| 2026-04-30 20:49 | 54.41636 | 38.74094 | 25186 ft | 454 kts | 334° |
| 2026-04-30 20:49 | 54.44496 | 38.71674 | 25190 ft | 454 kts | 334° |
| 2026-04-30 20:49 | 54.47315 | 38.69280 | 25188 ft | 455 kts | 334° |
| 2026-04-30 20:50 | 54.52969 | 38.64443 | 25185 ft | 455 kts | 335° |
| 2026-04-30 20:50 | 54.55819 | 38.61991 | 25183 ft | 456 kts | 335° |
| 2026-04-30 20:50 | 54.58624 | 38.59569 | 25185 ft | 456 kts | 335° |
| 2026-04-30 20:50 | 54.61431 | 38.57139 | 25187 ft | 456 kts | 335° |
| 2026-04-30 20:51 | 54.64275 | 38.54672 | 25185 ft | 456 kts | 335° |
| 2026-04-30 20:51 | 54.69935 | 38.49747 | 25187 ft | 456 kts | 335° |
| 2026-04-30 20:51 | 54.72754 | 38.47288 | 25183 ft | 456 kts | 335° |
| 2026-04-30 20:52 | 54.75557 | 38.44845 | 25072 ft | 457 kts | 335° |
| 2026-04-30 20:52 | 54.78395 | 38.42378 | 24621 ft | 456 kts | 335° |
| 2026-04-30 20:52 | 54.84049 | 38.37803 | 23399 ft | 443 kts | 341° |
| 2026-04-30 20:53 | 54.86943 | 38.36190 | 23179 ft | 432 kts | 347° |
| 2026-04-30 20:53 | 54.89863 | 38.35096 | 23196 ft | 437 kts | 352° |
| 2026-04-30 20:53 | 54.92908 | 38.34227 | 23197 ft | 438 kts | 353° |
| 2026-04-30 20:54 | 54.98927 | 38.32786 | 23195 ft | 438 kts | 354° |
| 2026-04-30 20:54 | 55.01925 | 38.32092 | 23195 ft | 438 kts | 353° |
| 2026-04-30 20:54 | 55.04957 | 38.31378 | 23195 ft | 439 kts | 353° |
| 2026-04-30 20:55 | 55.10955 | 38.29918 | 23199 ft | 437 kts | 353° |
| 2026-04-30 20:55 | 55.13960 | 38.29055 | 23196 ft | 437 kts | 351° |
| 2026-04-30 20:55 | 55.16892 | 38.27811 | 23196 ft | 438 kts | 345° |
| 2026-04-30 20:56 | 55.22663 | 38.24275 | 22261 ft | 436 kts | 340° |
| 2026-04-30 20:56 | 55.25415 | 38.22353 | 21642 ft | 430 kts | 340° |
| 2026-04-30 20:56 | 55.30850 | 38.18215 | 20422 ft | 422 kts | 333° |
| 2026-04-30 20:57 | 55.33334 | 38.15585 | 20187 ft | 418 kts | 328° |
| 2026-04-30 20:57 | 55.35745 | 38.12662 | 20201 ft | 423 kts | 326° |
| 2026-04-30 20:57 | 55.38113 | 38.09618 | 20207 ft | 423 kts | 325° |
| 2026-04-30 20:58 | 55.42807 | 38.03381 | 20201 ft | 423 kts | 325° |
| 2026-04-30 20:58 | 55.45119 | 38.00286 | 20204 ft | 422 kts | 325° |
| 2026-04-30 20:58 | 55.47489 | 37.97113 | 20201 ft | 422 kts | 325° |
| 2026-04-30 20:58 | 55.49770 | 37.93973 | 20196 ft | 423 kts | 323° |
| 2026-04-30 20:59 | 55.54037 | 37.86802 | 19288 ft | 422 kts | 310° |
| 2026-04-30 20:59 | 55.55520 | 37.82333 | 18731 ft | 418 kts | 296° |
| 2026-04-30 21:00 | 55.56945 | 37.72570 | 17703 ft | 407 kts | 279° |
| 2026-04-30 21:00 | 55.56399 | 37.62785 | 16726 ft | 397 kts | 257° |
| 2026-04-30 21:01 | 55.53527 | 37.54984 | 16176 ft | 376 kts | 215° |
| 2026-04-30 21:01 | 55.51225 | 37.53042 | 16053 ft | 361 kts | 197° |
| 2026-04-30 21:01 | 55.46374 | 37.52340 | 15251 ft | 349 kts | 174° |
| 2026-04-30 21:02 | 55.44011 | 37.52897 | 15179 ft | 333 kts | 168° |
| 2026-04-30 21:02 | 55.41748 | 37.53514 | 14971 ft | 324 kts | 174° |
| 2026-04-30 21:02 | 55.39524 | 37.53617 | 14866 ft | 313 kts | 182° |
| 2026-04-30 21:02 | 55.37395 | 37.53326 | 14770 ft | 301 kts | 186° |
| 2026-04-30 21:03 | 55.35368 | 37.52909 | 14688 ft | 290 kts | 185° |
| 2026-04-30 21:03 | 55.33369 | 37.52788 | 14588 ft | 280 kts | 179° |
| 2026-04-30 21:03 | 55.31455 | 37.52917 | 14385 ft | 274 kts | 176° |
| 2026-04-30 21:03 | 55.29556 | 37.53128 | 13953 ft | 280 kts | 176° |
| 2026-04-30 21:04 | 55.27608 | 37.53344 | 13633 ft | 277 kts | 176° |
| 2026-04-30 21:04 | 55.25701 | 37.53277 | 13428 ft | 272 kts | 189° |
| 2026-04-30 21:04 | 55.22670 | 37.49781 | 12771 ft | 267 kts | 239° |
| 2026-04-30 21:05 | 55.21818 | 37.46905 | 12440 ft | 263 kts | 252° |
| 2026-04-30 21:05 | 55.21461 | 37.43796 | 12105 ft | 258 kts | 271° |
| 2026-04-30 21:05 | 55.21687 | 37.40772 | 11763 ft | 253 kts | 295° |
| 2026-04-30 21:05 | 55.22682 | 37.38277 | 11450 ft | 245 kts | 320° |
| 2026-04-30 21:06 | 55.24076 | 37.36629 | 11135 ft | 242 kts | 335° |
| 2026-04-30 21:06 | 55.25647 | 37.35588 | 10669 ft | 245 kts | 351° |
| 2026-04-30 21:06 | 55.27331 | 37.35686 | 10244 ft | 246 kts | 15° |
| 2026-04-30 21:06 | 55.28969 | 37.36588 | 9890 ft | 246 kts | 18° |
| 2026-04-30 21:07 | 55.30640 | 37.37223 | 9364 ft | 251 kts | 2° |
| 2026-04-30 21:07 | 55.32285 | 37.36433 | 9137 ft | 247 kts | 329° |
| 2026-04-30 21:07 | 55.33545 | 37.34306 | 8671 ft | 253 kts | 311° |
| 2026-04-30 21:07 | 55.34634 | 37.31866 | 8075 ft | 257 kts | 310° |
| 2026-04-30 21:08 | 55.35785 | 37.29470 | 7429 ft | 260 kts | 313° |
| 2026-04-30 21:08 | 55.37005 | 37.27142 | 6805 ft | 258 kts | 315° |
| 2026-04-30 21:08 | 55.38208 | 37.24919 | 6421 ft | 247 kts | 315° |
| 2026-04-30 21:08 | 55.39382 | 37.22754 | 5943 ft | 241 kts | 315° |
| 2026-04-30 21:09 | 55.40522 | 37.20641 | 5477 ft | 236 kts | 315° |
| 2026-04-30 21:09 | 55.41638 | 37.18563 | 5120 ft | 227 kts | 315° |
| 2026-04-30 21:09 | 55.42695 | 37.16590 | 4805 ft | 218 kts | 315° |
| 2026-04-30 21:09 | 55.43731 | 37.14677 | 4433 ft | 213 kts | 316° |
| 2026-04-30 21:10 | 55.44791 | 37.12950 | 4177 ft | 204 kts | 320° |
| 2026-04-30 21:10 | 55.45845 | 37.11400 | 3951 ft | 194 kts | 322° |
| 2026-04-30 21:10 | 55.46865 | 37.09912 | 3796 ft | 181 kts | 321° |
| 2026-04-30 21:10 | 55.47784 | 37.08548 | 3741 ft | 166 kts | 321° |
| 2026-04-30 21:11 | 55.48662 | 37.07237 | 3709 ft | 166 kts | 321° |
| 2026-04-30 21:11 | 55.49625 | 37.06088 | 3605 ft | 166 kts | 338° |
| 2026-04-30 21:11 | 55.50716 | 37.05496 | 3454 ft | 165 kts | 344° |
| 2026-04-30 21:11 | 55.51820 | 37.04909 | 3281 ft | 164 kts | 342° |
| 2026-04-30 21:12 | 55.52931 | 37.04502 | 3128 ft | 164 kts | 360° |
| 2026-04-30 21:12 | 55.54001 | 37.05145 | 2977 ft | 169 kts | 33° |
| 2026-04-30 21:12 | 55.54816 | 37.06694 | 2688 ft | 175 kts | 56° |
| 2026-04-30 21:12 | 55.55271 | 37.08632 | 2452 ft | 165 kts | 68° |
| 2026-04-30 21:13 | 55.55620 | 37.10472 | 2222 ft | 154 kts | 67° |
| 2026-04-30 21:13 | 55.56006 | 37.12248 | 2020 ft | 153 kts | 65° |
| 2026-04-30 21:13 | 55.56405 | 37.13976 | 1965 ft | 153 kts | 65° |
| 2026-04-30 21:13 | 55.56806 | 37.15746 | 1750 ft | 157 kts | 65° |
| 2026-04-30 21:14 | 55.57212 | 37.17519 | 1520 ft | 151 kts | 65° |
| 2026-04-30 21:14 | 55.57591 | 37.19239 | 1291 ft | 149 kts | 67° |
| 2026-04-30 21:14 | 55.57976 | 37.20916 | 1076 ft | 149 kts | 65° |
| 2026-04-30 21:14 | 55.58365 | 37.22622 | 887 ft | 149 kts | 67° |
| 2026-04-30 21:15 | 55.58745 | 37.24344 | 708 ft | 151 kts | 67° |
| 2026-04-30 21:15 | 55.59106 | 37.25920 | 698 ft | 112 kts | 65° |
| 2026-04-30 21:15 | 55.59311 | 37.26833 | 698 ft | 51 kts | 67° |
| 2026-04-30 21:15 | 55.59388 | 37.27177 | 698 ft | 24 kts | 67° |
| 2026-04-30 21:16 | 55.59479 | 37.27422 | 698 ft | 23 kts | 47° |
| 2026-04-30 21:16 | 55.59598 | 37.27611 | 698 ft | 22 kts | 39° |
| 2026-04-30 21:16 | 55.59729 | 37.27755 | 698 ft | 14 kts | 20° |
| 2026-04-30 21:16 | 55.59821 | 37.27813 | 698 ft | 13 kts | 19° |
| 2026-04-30 21:17 | 55.59906 | 37.27864 | 698 ft | 10 kts | 17° |
| 2026-04-30 21:17 | 55.59949 | 37.27949 | 698 ft | 10 kts | 93° |
| 2026-04-30 21:17 | 55.59942 | 37.28042 | 698 ft | 5 kts | 86° |
| 2026-04-30 21:17 | 55.59967 | 37.28086 | 698 ft | 5 kts | 10° |
| 2026-04-30 21:18 | 55.60001 | 37.28093 | 698 ft | 2 kts | 5° |
| 2026-04-30 21:18 | 55.60002 | 37.28093 | 698 ft | 0 kts | 5° |